Time;durP1;ratioP1;P1;durP2;ratioP2;P2;SDS_P1;SDS_P2;PMS_P1;PMS_P2;Temp;Humidity;BMP_temperature;BMP_pressure;BME280_temperature;BME280_humidity;BME280_pressure;Samples;Min_cycle;Max_cycle;Signal;HPM_P1;HPM_P2
2022/09/12 00:00:10;;;;;;;;;;;;;;;;;;350090;28;972;-62
2022/09/12 00:00:22;;;;;;;;;;;;;;;;;;349988;28;932;-62
2022/09/12 00:00:32;;;;;;;;;;;;;;;;;;350031;28;977;-62
2022/09/12 00:00:42;;;;;;;;;;;;;;;;;;350058;28;807;-62
2022/09/12 00:01:02;;;;;;;;;;;;;;;;;;350028;28;999;-62
2022/09/12 00:01:14;;;;;;;;;;;;;;;;;;350073;28;897;-62
2022/09/12 00:01:25;;;;;;;;;;;;;;;;;;350055;28;972;-62
2022/09/12 00:01:35;;;;;;;;;;;;;;;;;;350077;28;885;-62
2022/09/12 00:01:45;;;;;;;;;;;;;;;;;;350124;28;778;-62
2022/09/12 00:01:56;;;;;;;;;;;;;;;;;;350039;28;987;-62
2022/09/12 00:02:06;;;;;;;;;;;;;;;;;;350095;28;904;-62
2022/09/12 00:02:16;;;;;;;;;;;;;;;;;;349997;28;983;-62
2022/09/12 00:02:26;;;;;;;;;;;;;;;;;;350043;28;892;-62
2022/09/12 00:02:36;;;;;;;;;;;;;;;;;;350111;28;865;-62
2022/09/12 00:02:46;;;;;;;;;;;;;;;;;;350042;28;928;-62
2022/09/12 00:02:57;;;;;;;;;;;;;;;;;;350055;28;924;-62
2022/09/12 00:03:07;;;;;;;;;;;;;;;;;;349979;28;932;-62
2022/09/12 00:03:18;;;;;;;;;;;;;;;;;;350046;28;999;-62
2022/09/12 00:03:28;;;;;;;;;;;;;;;;;;350101;28;897;-62
2022/09/12 00:03:38;;;;;;;;;;;;;;;;;;350064;28;933;-62
2022/09/12 00:03:53;;;;;;;;;;;;;;;;;;350085;28;845;-62
2022/09/12 00:04:03;;;;;;;;;;;;;;;;;;350012;28;869;-62
2022/09/12 00:04:13;;;;;;;;;;;;;;;;;;350081;28;819;-62
2022/09/12 00:04:24;;;;;;;;;;;;;;;;;;348855;28;1935;-62
2022/09/12 00:04:34;;;;;;;;;;;;;;;;;;349184;28;1371;-62
2022/09/12 00:04:44;;;;;;;;;;;;;;;;;;350056;28;988;-62
2022/09/12 00:04:54;;;;;;;;;;;;;;;;;;350013;28;949;-62
2022/09/12 00:05:06;;;;;;;;;;;;;;;;;;350009;28;918;-62
2022/09/12 00:05:16;;;;;;;;;;;;;;;;;;349992;28;1175;-62
2022/09/12 00:05:27;;;;;;;;;;;;;;;;;;350033;28;963;-62
2022/09/12 00:05:41;;;;;;;;;;;;;;;;;;349978;28;781;-62
2022/09/12 00:05:51;;;;;;;;;;;;;;;;;;350037;28;960;-62
2022/09/12 00:06:06;;;;;;;;;;;;;;;;;;350047;28;1039;-62
2022/09/12 00:06:18;;;;;;;;;;;;;;;;;;350079;28;820;-62
2022/09/12 00:06:30;;;;;;;;;;;;;;;;;;350047;28;794;-62
2022/09/12 00:06:41;;;;;;;;;;;;;;;;;;350005;28;826;-62
2022/09/12 00:06:51;;;;;;;;;;;;;;;;;;350022;28;995;-62
2022/09/12 00:07:01;;;;;;;;;;;;;;;;;;350066;28;834;-62
2022/09/12 00:07:11;;;;;;;;;;;;;;;;;;350051;28;913;-62
2022/09/12 00:07:22;;;;;;;;;;;;;;;;;;350041;28;948;-62
2022/09/12 00:07:32;;;;;;;;;;;;;;;;;;350088;28;857;-62
2022/09/12 00:07:43;;;;;;;;;;;;;;;;;;350011;28;932;-62
2022/09/12 00:07:53;;;;;;;;;;;;;;;;;;350052;28;991;-61
2022/09/12 00:08:03;;;;;;;;;;;;;;;;;;350025;28;956;-62
2022/09/12 00:08:13;;;;;;;;;;;;;;;;;;350075;28;770;-62
2022/09/12 00:08:24;;;;;;;;;;;;;;;;;;350071;28;962;-62
2022/09/12 00:08:34;;;;;;;;;;;;;;;;;;349983;28;952;-61
2022/09/12 00:08:44;;;;;;;;;;;;;;;;;;350048;28;936;-62
2022/09/12 00:08:56;;;;;;;;;;;;;;;;;;350015;28;952;-62
2022/09/12 00:09:08;;;;;;;;;;;;;;;;;;350063;28;825;-62
2022/09/12 00:09:18;;;;;;;;;;;;;;;;;;350078;28;904;-62
2022/09/12 00:09:28;;;;;;;;;;;;;;;;;;350019;28;964;-62
2022/09/12 00:09:38;;;;;;;;;;;;;;;;;;350007;28;1070;-62
2022/09/12 00:09:49;;;;;;;;;;;;;;;;;;350055;28;932;-62
2022/09/12 00:09:59;;;;;;;;;;;;;;;;;;350074;28;921;-62
2022/09/12 00:10:09;;;;;;;;;;;;;;;;;;350021;28;932;-62
2022/09/12 00:10:20;;;;;;;;;;;;;;;;;;350063;28;956;-62
2022/09/12 00:10:30;;;;;;;;;;;;;;;;;;350137;28;794;-62
2022/09/12 00:10:41;;;;;;;;;;;;;;;;;;349988;28;1013;-62
2022/09/12 00:10:51;;;;;;;;;;;;;;;;;;350012;28;908;-62
2022/09/12 00:11:09;;;;;;;;;;;;;;;;;;350016;28;928;-62
2022/09/12 00:11:19;;;;;;;;;;;;;;;;;;349994;28;1025;-62
2022/09/12 00:11:30;;;;;;;;;;;;;;;;;;350006;28;921;-62
2022/09/12 00:11:41;;;;;;;;;;;;;;;;;;350060;28;877;-62
2022/09/12 00:11:51;;;;;;;;;;;;;;;;;;350089;28;979;-62
2022/09/12 00:12:01;;;;;;;;;;;;;;;;;;350048;28;850;-62
2022/09/12 00:12:12;;;;;;;;;;;;;;;;;;350084;28;960;-62
2022/09/12 00:12:22;;;;;;;;;;;;;;;;;;350010;28;1910;-62
2022/09/12 00:12:32;;;;;;;;;;;;;;;;;;350074;28;963;-62
2022/09/12 00:12:42;;;;;;;;;;;;;;;;;;350009;28;871;-62
2022/09/12 00:12:52;;;;;;;;;;;;;;;;;;350023;28;975;-62
2022/09/12 00:13:03;;;;;;;;;;;;;;;;;;349995;28;1026;-62
2022/09/12 00:13:13;;;;;;;;;;;;;;;;;;350058;28;952;-62
2022/09/12 00:13:23;;;;;;;;;;;;;;;;;;350028;28;927;-62
2022/09/12 00:13:34;;;;;;;;;;;;;;;;;;350015;28;976;-62
2022/09/12 00:13:44;;;;;;;;;;;;;;;;;;350068;28;937;-62
2022/09/12 00:13:59;;;;;;;;;;;;;;;;;;350053;28;920;-62
2022/09/12 00:14:10;;;;;;;;;;;;;;;;;;349995;28;963;-62
2022/09/12 00:14:20;;;;;;;;;;;;;;;;;;350015;28;916;-62
2022/09/12 00:14:30;;;;;;;;;;;;;;;;;;350027;28;1112;-62
2022/09/12 00:14:40;;;;;;;;;;;;;;;;;;349987;28;1011;-62
2022/09/12 00:14:51;;;;;;;;;;;;;;;;;;349985;28;850;-62
2022/09/12 00:15:01;;;;;;;;;;;;;;;;;;350047;28;917;-62
2022/09/12 00:15:11;;;;;;;;;;;;;;;;;;350027;28;967;-62
2022/09/12 00:15:21;;;;;;;;;;;;;;;;;;350089;28;833;-62
2022/09/12 00:15:36;;;;;;;;;;;;;;;;;;349992;28;988;-61
2022/09/12 00:15:46;;;;;;;;;;;;;;;;;;349427;28;1445;-61
2022/09/12 00:15:56;;;;;;;;;;;;;;;;;;348731;28;1515;-62
2022/09/12 00:16:07;;;;;;;;;;;;;;;;;;348703;28;782;-62
2022/09/12 00:16:22;;;;;;;;;;;;;;;;;;348685;28;988;-62
2022/09/12 00:16:34;;;;;;;;;;;;;;;;;;348696;28;885;-62
2022/09/12 00:16:44;;;;;;;;;;;;;;;;;;348637;28;944;-61
2022/09/12 00:16:58;;;;;;;;;;;;;;;;;;348593;28;1151;-62
2022/09/12 00:17:08;;;;;;;;;;;;;;;;;;348624;28;975;-62
2022/09/12 00:17:19;;;;;;;;;;;;;;;;;;348610;28;1027;-62
2022/09/12 00:17:29;;;;;;;;;;;;;;;;;;348709;28;920;-62
2022/09/12 00:17:39;;;;;;;;;;;;;;;;;;348669;28;863;-61
2022/09/12 00:17:49;;;;;;;;;;;;;;;;;;348651;28;1021;-62
2022/09/12 00:18:00;;;;;;;;;;;;;;;;;;348632;28;952;-62
2022/09/12 00:18:14;;;;;;;;;;;;;;;;;;348646;28;968;-62
2022/09/12 00:18:25;;;;;;;;;;;;;;;;;;348636;28;940;-62
2022/09/12 00:18:35;;;;;;;;;;;;;;;;;;348624;28;991;-62
2022/09/12 00:18:46;;;;;;;;;;;;;;;;;;348687;28;857;-62
2022/09/12 00:18:56;;;;;;;;;;;;;;;;;;348616;28;991;-62
2022/09/12 00:19:07;;;;;;;;;;;;;;;;;;348583;28;886;-62
2022/09/12 00:19:17;;;;;;;;;;;;;;;;;;348660;28;900;-62
2022/09/12 00:19:28;;;;;;;;;;;;;;;;;;348698;28;797;-62
2022/09/12 00:19:38;;;;;;;;;;;;;;;;;;348601;28;955;-62
2022/09/12 00:19:49;;;;;;;;;;;;;;;;;;348620;28;727;-62
2022/09/12 00:19:59;;;;;;;;;;;;;;;;;;348731;28;920;-62
2022/09/12 00:20:09;;;;;;;;;;;;;;;;;;348603;28;1023;-62
2022/09/12 00:20:20;;;;;;;;;;;;;;;;;;348679;28;872;-62
2022/09/12 00:20:30;;;;;;;;;;;;;;;;;;348688;28;837;-62
2022/09/12 00:20:41;;;;;;;;;;;;;;;;;;348584;28;968;-62
2022/09/12 00:20:51;;;;;;;;;;;;;;;;;;348698;28;980;-61
2022/09/12 00:21:03;;;;;;;;;;;;;;;;;;351196;28;1323;-62
2022/09/12 00:21:14;;;;;;;;;;;;;;;;;;351344;28;988;-62
2022/09/12 00:21:24;;;;;;;;;;;;;;;;;;351412;28;1023;-62
2022/09/12 00:21:35;;;;;;;;;;;;;;;;;;349995;28;1218;-62
2022/09/12 00:21:46;;;;;;;;;;;;;;;;;;349988;28;988;-62
2022/09/12 00:21:56;;;;;;;;;;;;;;;;;;350002;28;980;-62
2022/09/12 00:22:06;;;;;;;;;;;;;;;;;;350045;28;864;-62
2022/09/12 00:22:16;;;;;;;;;;;;;;;;;;350028;28;936;-62
2022/09/12 00:22:27;;;;;;;;;;;;;;;;;;350049;28;920;-62
2022/09/12 00:22:37;;;;;;;;;;;;;;;;;;350032;28;948;-62
2022/09/12 00:22:47;;;;;;;;;;;;;;;;;;350041;28;892;-62
2022/09/12 00:22:57;;;;;;;;;;;;;;;;;;350046;28;853;-62
2022/09/12 00:23:07;;;;;;;;;;;;;;;;;;349973;28;912;-61
2022/09/12 00:23:18;;;;;;;;;;;;;;;;;;349965;28;995;-62
2022/09/12 00:23:28;;;;;;;;;;;;;;;;;;350036;28;901;-62
2022/09/12 00:23:38;;;;;;;;;;;;;;;;;;349988;28;1063;-62
2022/09/12 00:23:49;;;;;;;;;;;;;;;;;;350033;28;929;-62
2022/09/12 00:23:59;;;;;;;;;;;;;;;;;;350011;28;912;-62
2022/09/12 00:24:10;;;;;;;;;;;;;;;;;;350057;28;814;-62
2022/09/12 00:24:20;;;;;;;;;;;;;;;;;;349971;28;814;-62
2022/09/12 00:24:32;;;;;;;;;;;;;;;;;;350036;28;928;-62
2022/09/12 00:24:42;;;;;;;;;;;;;;;;;;350022;28;892;-62
2022/09/12 00:24:52;;;;;;;;;;;;;;;;;;349957;28;1089;-62
2022/09/12 00:25:03;;;;;;;;;;;;;;;;;;350039;28;890;-62
2022/09/12 00:25:13;;;;;;;;;;;;;;;;;;349998;28;975;-62
2022/09/12 00:25:23;;;;;;;;;;;;;;;;;;349969;28;967;-62
2022/09/12 00:25:33;;;;;;;;;;;;;;;;;;350026;28;913;-62
2022/09/12 00:25:44;;;;;;;;;;;;;;;;;;350002;28;1023;-62
2022/09/12 00:25:54;;;;;;;;;;;;;;;;;;349983;28;929;-62
2022/09/12 00:26:05;;;;;;;;;;;;;;;;;;350020;28;849;-62
2022/09/12 00:26:16;;;;;;;;;;;;;;;;;;350073;28;805;-62
2022/09/12 00:26:26;;;;;;;;;;;;;;;;;;349955;28;971;-62
2022/09/12 00:26:37;;;;;;;;;;;;;;;;;;350014;28;1222;-62
2022/09/12 00:26:47;;;;;;;;;;;;;;;;;;350004;28;968;-61
2022/09/12 00:26:57;;;;;;;;;;;;;;;;;;349974;28;941;-62
2022/09/12 00:27:07;;;;;;;;;;;;;;;;;;349994;28;916;-62
2022/09/12 00:27:17;;;;;;;;;;;;;;;;;;349911;28;1045;-62
2022/09/12 00:27:28;;;;;;;;;;;;;;;;;;349988;28;930;-61
2022/09/12 00:27:38;;;;;;;;;;;;;;;;;;350006;28;920;-62
2022/09/12 00:27:48;;;;;;;;;;;;;;;;;;350019;28;948;-62
2022/09/12 00:27:58;;;;;;;;;;;;;;;;;;350006;28;913;-62
2022/09/12 00:28:09;;;;;;;;;;;;;;;;;;350011;28;904;-62
2022/09/12 00:28:19;;;;;;;;;;;;;;;;;;350045;28;924;-62
2022/09/12 00:28:29;;;;;;;;;;;;;;;;;;349954;28;968;-62
2022/09/12 00:28:40;;;;;;;;;;;;;;;;;;349993;28;920;-62
2022/09/12 00:28:50;;;;;;;;;;;;;;;;;;349995;28;951;-62
2022/09/12 00:29:01;;;;;;;;;;;;;;;;;;349957;28;1008;-62
2022/09/12 00:29:20;;;;;;;;;;;;;;;;;;350029;28;929;-62
2022/09/12 00:29:30;;;;;;;;;;;;;;;;;;349975;28;929;-62
2022/09/12 00:29:41;;;;;;;;;;;;;;;;;;349951;28;952;-62
2022/09/12 00:29:51;;;;;;;;;;;;;;;;;;350000;28;916;-62
2022/09/12 00:30:01;;;;;;;;;;;;;;;;;;349221;28;1669;-62
2022/09/12 00:30:11;;;;;;;;;;;;;;;;;;350035;28;913;-62
2022/09/12 00:30:22;;;;;;;;;;;;;;;;;;350032;28;813;-62
2022/09/12 00:30:32;;;;;;;;;;;;;;;;;;349977;28;888;-62
2022/09/12 00:30:44;;;;;;;;;;;;;;;;;;350046;28;873;-62
2022/09/12 00:30:54;;;;;;;;;;;;;;;;;;349958;28;1071;-62
2022/09/12 00:31:19;;;;;;;;;;;;;;;;;;349995;28;909;-62
2022/09/12 00:31:29;;;;;;;;;;;;;;;;;;349867;28;1358;-62
2022/09/12 00:31:39;;;;;;;;;;;;;;;;;;350038;28;1011;-62
2022/09/12 00:31:49;;;;;;;;;;;;;;;;;;350000;28;905;-62
2022/09/12 00:32:00;;;;;;;;;;;;;;;;;;349103;28;1630;-62
2022/09/12 00:32:10;;;;;;;;;;;;;;;;;;348597;28;932;-62
2022/09/12 00:32:20;;;;;;;;;;;;;;;;;;348551;28;1901;-62
2022/09/12 00:32:30;;;;;;;;;;;;;;;;;;348593;28;945;-62
2022/09/12 00:32:41;;;;;;;;;;;;;;;;;;348557;28;1226;-62
2022/09/12 00:32:53;;;;;;;;;;;;;;;;;;348627;28;1036;-62
2022/09/12 00:33:03;;;;;;;;;;;;;;;;;;348224;28;1312;-62
2022/09/12 00:33:15;;;;;;;;;;;;;;;;;;350050;28;864;-62
2022/09/12 00:33:25;;;;;;;;;;;;;;;;;;350011;28;905;-61
2022/09/12 00:33:35;;;;;;;;;;;;;;;;;;349951;28;884;-62
2022/09/12 00:33:45;;;;;;;;;;;;;;;;;;349954;28;819;-62
2022/09/12 00:33:57;;;;;;;;;;;;;;;;;;349972;28;999;-62
2022/09/12 00:34:08;;;;;;;;;;;;;;;;;;348875;28;1963;-62
2022/09/12 00:34:18;;;;;;;;;;;;;;;;;;350016;28;862;-62
2022/09/12 00:34:28;;;;;;;;;;;;;;;;;;349970;28;921;-62
2022/09/12 00:34:38;;;;;;;;;;;;;;;;;;350010;28;810;-62
2022/09/12 00:34:48;;;;;;;;;;;;;;;;;;350032;28;909;-62
2022/09/12 00:34:59;;;;;;;;;;;;;;;;;;349971;28;878;-62
2022/09/12 00:35:09;;;;;;;;;;;;;;;;;;349954;28;900;-62
2022/09/12 00:35:19;;;;;;;;;;;;;;;;;;350030;28;945;-62
2022/09/12 00:35:29;;;;;;;;;;;;;;;;;;350041;28;940;-62
2022/09/12 00:35:41;;;;;;;;;;;;;;;;;;349886;28;913;-62
2022/09/12 00:35:54;;;;;;;;;;;;;;;;;;349970;28;917;-62
2022/09/12 00:36:05;;;;;;;;;;;;;;;;;;349931;28;1971;-62
2022/09/12 00:36:17;;;;;;;;;;;;;;;;;;351451;28;844;-62
2022/09/12 00:36:28;;;;;;;;;;;;;;;;;;351396;28;912;-62
2022/09/12 00:36:39;;;;;;;;;;;;;;;;;;351382;28;912;-62
2022/09/12 00:36:49;;;;;;;;;;;;;;;;;;351428;28;924;-62
2022/09/12 00:36:59;;;;;;;;;;;;;;;;;;351447;28;782;-62
2022/09/12 00:37:09;;;;;;;;;;;;;;;;;;351350;28;1098;-62
2022/09/12 00:37:19;;;;;;;;;;;;;;;;;;351387;28;1114;-62
2022/09/12 00:37:30;;;;;;;;;;;;;;;;;;351467;28;994;-62
2022/09/12 00:37:40;;;;;;;;;;;;;;;;;;351407;28;796;-62
2022/09/12 00:37:50;;;;;;;;;;;;;;;;;;351310;28;805;-62
2022/09/12 00:38:00;;;;;;;;;;;;;;;;;;351378;28;901;-61
2022/09/12 00:38:11;;;;;;;;;;;;;;;;;;351421;28;846;-62
2022/09/12 00:38:21;;;;;;;;;;;;;;;;;;351413;28;829;-62
2022/09/12 00:38:32;;;;;;;;;;;;;;;;;;351386;28;916;-62
2022/09/12 00:38:43;;;;;;;;;;;;;;;;;;351367;28;917;-62
2022/09/12 00:38:53;;;;;;;;;;;;;;;;;;351421;28;991;-62
2022/09/12 00:39:04;;;;;;;;;;;;;;;;;;351369;28;885;-62
2022/09/12 00:39:15;;;;;;;;;;;;;;;;;;351375;28;876;-62
2022/09/12 00:39:26;;;;;;;;;;;;;;;;;;351409;28;861;-62
2022/09/12 00:39:36;;;;;;;;;;;;;;;;;;351361;28;1195;-62
2022/09/12 00:39:46;;;;;;;;;;;;;;;;;;351375;28;983;-62
2022/09/12 00:39:56;;;;;;;;;;;;;;;;;;351353;28;912;-62
2022/09/12 00:40:07;;;;;;;;;;;;;;;;;;351398;28;968;-62
2022/09/12 00:40:17;;;;;;;;;;;;;;;;;;351402;28;967;-62
2022/09/12 00:40:27;;;;;;;;;;;;;;;;;;351359;28;1012;-62
2022/09/12 00:40:38;;;;;;;;;;;;;;;;;;351291;28;904;-62
2022/09/12 00:40:48;;;;;;;;;;;;;;;;;;351430;28;956;-62
2022/09/12 00:40:58;;;;;;;;;;;;;;;;;;351403;28;975;-61
2022/09/12 00:41:17;;;;;;;;;;;;;;;;;;351392;28;838;-62
2022/09/12 00:41:30;;;;;;;;;;;;;;;;;;351345;28;885;-62
2022/09/12 00:41:40;;;;;;;;;;;;;;;;;;351385;28;983;-62
2022/09/12 00:41:50;;;;;;;;;;;;;;;;;;351372;28;901;-62
2022/09/12 00:42:01;;;;;;;;;;;;;;;;;;351355;28;912;-62
2022/09/12 00:42:11;;;;;;;;;;;;;;;;;;351378;28;936;-62
2022/09/12 00:42:22;;;;;;;;;;;;;;;;;;351352;28;943;-62
2022/09/12 00:42:32;;;;;;;;;;;;;;;;;;351388;28;924;-62
2022/09/12 00:42:42;;;;;;;;;;;;;;;;;;351366;28;892;-62
2022/09/12 00:42:52;;;;;;;;;;;;;;;;;;351309;28;1012;-62
2022/09/12 00:43:03;;;;;;;;;;;;;;;;;;351407;28;912;-62
2022/09/12 00:43:13;;;;;;;;;;;;;;;;;;351399;28;820;-62
2022/09/12 00:43:38;;;;;;;;;;;;;;;;;;351420;28;837;-62
2022/09/12 00:43:58;;;;;;;;;;;;;;;;;;351322;28;975;-61
2022/09/12 00:44:09;;;;;;;;;;;;;;;;;;351368;28;1098;-62
2022/09/12 00:44:22;;;;;;;;;;;;;;;;;;351361;28;915;-62
2022/09/12 00:44:32;;;;;;;;;;;;;;;;;;351382;28;963;-62
2022/09/12 00:44:44;;;;;;;;;;;;;;;;;;351375;28;991;-62
2022/09/12 00:44:54;;;;;;;;;;;;;;;;;;351350;28;972;-62
2022/09/12 00:45:04;;;;;;;;;;;;;;;;;;351378;28;940;-61
2022/09/12 00:45:21;;;;;;;;;;;;;;;;;;351433;28;905;-62
2022/09/12 00:45:32;;;;;;;;;;;;;;;;;;351374;28;933;-62
2022/09/12 00:45:42;;;;;;;;;;;;;;;;;;351384;28;945;-62
2022/09/12 00:45:53;;;;;;;;;;;;;;;;;;351339;28;968;-62
2022/09/12 00:46:06;;;;;;;;;;;;;;;;;;351138;28;908;-62
2022/09/12 00:46:45;;;;;;;;;;;;;;;;;;351376;28;794;-62
2022/09/12 00:47:01;;;;;;;;;;;;;;;;;;349803;28;913;-62
2022/09/12 00:47:21;;;;;;;;;;;;;;;;;;349869;28;940;-62
2022/09/12 00:47:31;;;;;;;;;;;;;;;;;;350417;28;1363;-62
2022/09/12 00:47:42;;;;;;;;;;;;;;;;;;348739;28;1772;-62
2022/09/12 00:47:53;;;;;;;;;;;;;;;;;;348607;28;947;-62
2022/09/12 00:48:03;;;;;;;;;;;;;;;;;;348586;28;1007;-62
2022/09/12 00:48:25;;;;;;;;;;;;;;;;;;348523;28;913;-62
2022/09/12 00:48:40;;;;;;;;;;;;;;;;;;348639;28;920;-62
2022/09/12 00:49:02;;;;;;;;;;;;;;;;;;348578;28;985;-62
2022/09/12 00:49:23;;;;;;;;;;;;;;;;;;348575;28;977;-62
2022/09/12 00:49:45;;;;;;;;;;;;;;;;;;348660;28;1076;-62
2022/09/12 00:49:59;;;;;;;;;;;;;;;;;;348601;28;924;-62
2022/09/12 00:50:12;;;;;;;;;;;;;;;;;;348629;28;1087;-61
2022/09/12 00:50:23;;;;;;;;;;;;;;;;;;348636;28;972;-62
2022/09/12 00:50:34;;;;;;;;;;;;;;;;;;348604;28;1247;-62
2022/09/12 00:50:44;;;;;;;;;;;;;;;;;;348617;28;993;-62
2022/09/12 00:50:54;;;;;;;;;;;;;;;;;;348581;28;980;-62
2022/09/12 00:51:04;;;;;;;;;;;;;;;;;;348655;28;949;-61
2022/09/12 00:51:16;;;;;;;;;;;;;;;;;;348687;28;992;-62
2022/09/12 00:51:29;;;;;;;;;;;;;;;;;;348625;28;905;-62
2022/09/12 00:51:42;;;;;;;;;;;;;;;;;;348575;28;933;-62
2022/09/12 00:52:02;;;;;;;;;;;;;;;;;;348577;28;914;-62
2022/09/12 00:52:13;;;;;;;;;;;;;;;;;;348601;28;1009;-62
2022/09/12 00:52:33;;;;;;;;;;;;;;;;;;348468;28;1973;-62
2022/09/12 00:52:47;;;;;;;;;;;;;;;;;;348551;28;1467;-62
2022/09/12 00:53:01;;;;;;;;;;;;;;;;;;348577;28;930;-62
2022/09/12 00:53:11;;;;;;;;;;;;;;;;;;348570;28;1013;-62
2022/09/12 00:53:22;;;;;;;;;;;;;;;;;;348559;28;1067;-62
2022/09/12 00:53:32;;;;;;;;;;;;;;;;;;348637;28;984;-62
2022/09/12 00:53:43;;;;;;;;;;;;;;;;;;348609;28;991;-62
2022/09/12 00:53:54;;;;;;;;;;;;;;;;;;348580;28;921;-62
2022/09/12 00:54:11;;;;;;;;;;;;;;;;;;348565;28;999;-61
2022/09/12 00:54:24;;;;;;;;;;;;;;;;;;348566;28;826;-62
2022/09/12 00:54:54;;;;;;;;;;;;;;;;;;348480;28;929;-62
2022/09/12 00:55:08;;;;;;;;;;;;;;;;;;348530;28;1037;-62
2022/09/12 00:55:24;;;;;;;;;;;;;;;;;;348903;28;1332;-62
2022/09/12 00:55:36;;;;;;;;;;;;;;;;;;349995;28;941;-62
2022/09/12 00:55:49;;;;;;;;;;;;;;;;;;350037;28;912;-62
2022/09/12 00:55:59;;;;;;;;;;;;;;;;;;349982;28;944;-62
2022/09/12 00:56:10;;;;;;;;;;;;;;;;;;349916;28;945;-62
2022/09/12 00:56:21;;;;;;;;;;;;;;;;;;350051;28;845;-62
2022/09/12 00:56:31;;;;;;;;;;;;;;;;;;349936;28;1034;-62
2022/09/12 00:56:42;;;;;;;;;;;;;;;;;;349952;28;846;-62
2022/09/12 00:56:54;;;;;;;;;;;;;;;;;;349968;28;925;-62
2022/09/12 00:57:06;;;;;;;;;;;;;;;;;;349941;28;995;-62
2022/09/12 00:57:17;;;;;;;;;;;;;;;;;;349959;28;861;-62
2022/09/12 00:57:42;;;;;;;;;;;;;;;;;;349962;28;920;-62
2022/09/12 00:57:56;;;;;;;;;;;;;;;;;;349969;28;1035;-62
2022/09/12 00:58:13;;;;;;;;;;;;;;;;;;349946;28;970;-62
2022/09/12 00:58:26;;;;;;;;;;;;;;;;;;349931;28;851;-62
2022/09/12 00:58:41;;;;;;;;;;;;;;;;;;349942;28;924;-62
2022/09/12 00:58:56;;;;;;;;;;;;;;;;;;349932;28;1011;-62
2022/09/12 00:59:13;;;;;;;;;;;;;;;;;;349941;28;972;-62
2022/09/12 00:59:26;;;;;;;;;;;;;;;;;;349923;28;1019;-62
2022/09/12 00:59:42;;;;;;;;;;;;;;;;;;349984;28;783;-62
2022/09/12 00:59:55;;;;;;;;;;;;;;;;;;349938;28;908;-62
2022/09/12 01:00:12;;;;;;;;;;;;;;;;;;349922;28;1003;-62
2022/09/12 01:00:23;;;;;;;;;;;;;;;;;;349991;28;995;-61
2022/09/12 01:00:34;;;;;;;;;;;;;;;;;;349968;28;972;-62
2022/09/12 01:00:46;;;;;;;;;;;;;;;;;;349847;28;1012;-62
2022/09/12 01:00:57;;;;;;;;;;;;;;;;;;350001;28;1018;-62
2022/09/12 01:01:07;;;;;;;;;;;;;;;;;;349913;28;932;-62
2022/09/12 01:01:18;;;;;;;;;;;;;;;;;;349972;28;992;-62
2022/09/12 01:01:28;;;;;;;;;;;;;;;;;;350005;28;791;-62
2022/09/12 01:01:40;;;;;;;;;;;;;;;;;;349972;28;901;-62
2022/09/12 01:01:50;;;;;;;;;;;;;;;;;;349973;28;794;-62
2022/09/12 01:02:01;;;;;;;;;;;;;;;;;;349953;28;1004;-62
2022/09/12 01:02:11;;;;;;;;;;;;;;;;;;349930;28;889;-62
2022/09/12 01:02:21;;;;;;;;;;;;;;;;;;350031;28;846;-62
2022/09/12 01:02:32;;;;;;;;;;;;;;;;;;349987;28;909;-62
2022/09/12 01:02:44;;;;;;;;;;;;;;;;;;349915;28;988;-62
2022/09/12 01:03:04;;;;;;;;;;;;;;;;;;349967;28;909;-62
2022/09/12 01:03:17;;;;;;;;;;;;;;;;;;348605;28;1681;-62
2022/09/12 01:03:27;;;;;;;;;;;;;;;;;;349968;28;917;-62
2022/09/12 01:03:37;;;;;;;;;;;;;;;;;;349975;28;1023;-62
2022/09/12 01:03:48;;;;;;;;;;;;;;;;;;349962;28;936;-62
2022/09/12 01:03:58;;;;;;;;;;;;;;;;;;349810;28;1184;-62
2022/09/12 01:04:09;;;;;;;;;;;;;;;;;;348815;28;1923;-62
2022/09/12 01:04:21;;;;;;;;;;;;;;;;;;349317;28;1364;-62
2022/09/12 01:04:31;;;;;;;;;;;;;;;;;;348448;28;1585;-62
2022/09/12 01:04:43;;;;;;;;;;;;;;;;;;349812;28;1919;-62
2022/09/12 01:04:54;;;;;;;;;;;;;;;;;;351339;28;928;-62
2022/09/12 01:05:05;;;;;;;;;;;;;;;;;;351363;28;936;-62
2022/09/12 01:05:16;;;;;;;;;;;;;;;;;;351378;28;897;-62
2022/09/12 01:05:27;;;;;;;;;;;;;;;;;;351371;28;1018;-62
2022/09/12 01:05:42;;;;;;;;;;;;;;;;;;351315;28;1094;-62
2022/09/12 01:05:56;;;;;;;;;;;;;;;;;;351375;28;952;-62
2022/09/12 01:06:18;;;;;;;;;;;;;;;;;;351386;28;967;-61
2022/09/12 01:06:34;;;;;;;;;;;;;;;;;;351287;28;1031;-62
2022/09/12 01:06:45;;;;;;;;;;;;;;;;;;351314;28;826;-61
2022/09/12 01:06:56;;;;;;;;;;;;;;;;;;351285;28;1223;-62
2022/09/12 01:07:07;;;;;;;;;;;;;;;;;;351330;28;932;-62
2022/09/12 01:07:18;;;;;;;;;;;;;;;;;;351294;28;1023;-61
2022/09/12 01:07:29;;;;;;;;;;;;;;;;;;351396;28;960;-62
2022/09/12 01:07:39;;;;;;;;;;;;;;;;;;351299;28;944;-62
2022/09/12 01:07:51;;;;;;;;;;;;;;;;;;351360;28;826;-62
2022/09/12 01:08:02;;;;;;;;;;;;;;;;;;351364;28;921;-62
2022/09/12 01:08:12;;;;;;;;;;;;;;;;;;351345;28;836;-62
2022/09/12 01:08:23;;;;;;;;;;;;;;;;;;351371;28;905;-62
2022/09/12 01:08:36;;;;;;;;;;;;;;;;;;351380;28;972;-62
2022/09/12 01:08:47;;;;;;;;;;;;;;;;;;351371;28;916;-62
2022/09/12 01:08:58;;;;;;;;;;;;;;;;;;351242;28;809;-62
2022/09/12 01:09:11;;;;;;;;;;;;;;;;;;351440;28;947;-62
2022/09/12 01:09:22;;;;;;;;;;;;;;;;;;351380;28;857;-62
2022/09/12 01:09:32;;;;;;;;;;;;;;;;;;351332;28;1016;-62
2022/09/12 01:09:44;;;;;;;;;;;;;;;;;;351328;28;928;-62
2022/09/12 01:09:54;;;;;;;;;;;;;;;;;;351372;28;995;-62
2022/09/12 01:10:05;;;;;;;;;;;;;;;;;;351384;28;863;-62
2022/09/12 01:10:16;;;;;;;;;;;;;;;;;;351340;28;937;-62
2022/09/12 01:10:26;;;;;;;;;;;;;;;;;;351354;28;849;-62
2022/09/12 01:10:37;;;;;;;;;;;;;;;;;;351346;28;1053;-62
2022/09/12 01:10:47;;;;;;;;;;;;;;;;;;351350;28;1000;-62
2022/09/12 01:10:58;;;;;;;;;;;;;;;;;;351399;28;983;-62
2022/09/12 01:11:08;;;;;;;;;;;;;;;;;;351249;28;987;-62
2022/09/12 01:11:19;;;;;;;;;;;;;;;;;;351336;28;944;-62
2022/09/12 01:11:35;;;;;;;;;;;;;;;;;;351401;28;778;-62
2022/09/12 01:11:47;;;;;;;;;;;;;;;;;;351369;28;987;-62
2022/09/12 01:11:58;;;;;;;;;;;;;;;;;;351347;28;991;-62
2022/09/12 01:12:08;;;;;;;;;;;;;;;;;;351329;28;1019;-62
2022/09/12 01:12:19;;;;;;;;;;;;;;;;;;351369;28;971;-62
2022/09/12 01:12:30;;;;;;;;;;;;;;;;;;351260;28;1906;-62
2022/09/12 01:12:41;;;;;;;;;;;;;;;;;;351373;28;912;-62
2022/09/12 01:12:51;;;;;;;;;;;;;;;;;;351418;28;829;-62
2022/09/12 01:13:04;;;;;;;;;;;;;;;;;;351359;28;921;-62
2022/09/12 01:13:14;;;;;;;;;;;;;;;;;;351256;28;1015;-62
2022/09/12 01:13:25;;;;;;;;;;;;;;;;;;351356;28;837;-62
2022/09/12 01:13:35;;;;;;;;;;;;;;;;;;351394;28;1031;-62
2022/09/12 01:13:46;;;;;;;;;;;;;;;;;;351415;28;1003;-62
2022/09/12 01:13:56;;;;;;;;;;;;;;;;;;351363;28;1015;-62
2022/09/12 01:14:07;;;;;;;;;;;;;;;;;;351319;28;1098;-62
2022/09/12 01:14:19;;;;;;;;;;;;;;;;;;351318;28;1011;-62
2022/09/12 01:14:30;;;;;;;;;;;;;;;;;;351359;28;936;-62
2022/09/12 01:14:40;;;;;;;;;;;;;;;;;;351356;28;822;-62
2022/09/12 01:14:50;;;;;;;;;;;;;;;;;;351374;28;901;-62
2022/09/12 01:15:00;;;;;;;;;;;;;;;;;;351407;28;916;-62
2022/09/12 01:15:11;;;;;;;;;;;;;;;;;;351363;28;909;-62
2022/09/12 01:15:21;;;;;;;;;;;;;;;;;;351368;28;833;-62
2022/09/12 01:15:32;;;;;;;;;;;;;;;;;;351375;28;877;-62
2022/09/12 01:15:42;;;;;;;;;;;;;;;;;;351338;28;921;-62
2022/09/12 01:15:53;;;;;;;;;;;;;;;;;;351338;28;1090;-62
2022/09/12 01:16:04;;;;;;;;;;;;;;;;;;351410;28;979;-62
2022/09/12 01:16:15;;;;;;;;;;;;;;;;;;351312;28;964;-62
2022/09/12 01:16:25;;;;;;;;;;;;;;;;;;351332;28;952;-62
2022/09/12 01:16:36;;;;;;;;;;;;;;;;;;351323;28;845;-62
2022/09/12 01:16:47;;;;;;;;;;;;;;;;;;351355;28;971;-62
2022/09/12 01:16:57;;;;;;;;;;;;;;;;;;351322;28;865;-62
2022/09/12 01:17:10;;;;;;;;;;;;;;;;;;351379;28;905;-62
2022/09/12 01:17:21;;;;;;;;;;;;;;;;;;351269;28;900;-62
2022/09/12 01:17:40;;;;;;;;;;;;;;;;;;351386;28;853;-62
2022/09/12 01:18:09;;;;;;;;;;;;;;;;;;351317;28;971;-62
2022/09/12 01:18:29;;;;;;;;;;;;;;;;;;350265;28;1437;-62
2022/09/12 01:18:47;;;;;;;;;;;;;;;;;;348587;28;987;-62
2022/09/12 01:19:11;;;;;;;;;;;;;;;;;;348583;28;998;-62
2022/09/12 01:19:21;;;;;;;;;;;;;;;;;;348581;28;775;-62
2022/09/12 01:19:54;;;;;;;;;;;;;;;;;;348515;28;861;-62
2022/09/12 01:20:25;;;;;;;;;;;;;;;;;;348507;28;1039;-62
2022/09/12 01:20:47;;;;;;;;;;;;;;;;;;348560;28;972;-62
2022/09/12 01:21:15;;;;;;;;;;;;;;;;;;350146;28;1291;-62
2022/09/12 01:21:41;;;;;;;;;;;;;;;;;;351334;28;948;-62
2022/09/12 01:22:11;;;;;;;;;;;;;;;;;;351258;28;996;-62
2022/09/12 01:22:24;;;;;;;;;;;;;;;;;;351383;28;948;-62
2022/09/12 01:22:58;;;;;;;;;;;;;;;;;;351312;28;1000;-62
2022/09/12 01:23:19;;;;;;;;;;;;;;;;;;351350;28;853;-62
2022/09/12 01:23:32;;;;;;;;;;;;;;;;;;351366;28;857;-61
2022/09/12 01:23:52;;;;;;;;;;;;;;;;;;351309;28;905;-62
2022/09/12 01:24:25;;;;;;;;;;;;;;;;;;351311;28;976;-62
2022/09/12 01:24:50;;;;;;;;;;;;;;;;;;348618;28;908;-62
2022/09/12 01:25:19;;;;;;;;;;;;;;;;;;348582;28;996;-62
2022/09/12 01:25:52;;;;;;;;;;;;;;;;;;348639;28;786;-62
2022/09/12 01:26:27;;;;;;;;;;;;;;;;;;348554;28;917;-62
2022/09/12 01:26:47;;;;;;;;;;;;;;;;;;348501;28;925;-62
2022/09/12 01:26:57;;;;;;;;;;;;;;;;;;348567;28;980;-62
2022/09/12 01:27:28;;;;;;;;;;;;;;;;;;348572;28;945;-61
2022/09/12 01:27:42;;;;;;;;;;;;;;;;;;348556;28;1096;-62
2022/09/12 01:28:02;;;;;;;;;;;;;;;;;;348594;28;775;-61
2022/09/12 01:28:23;;;;;;;;;;;;;;;;;;348538;28;933;-62